Time;durP1;ratioP1;P1;durP2;ratioP2;P2;SDS_P1;SDS_P2;PMS_P1;PMS_P2;Temp;Humidity;BMP_temperature;BMP_pressure;BME280_temperature;BME280_humidity;BME280_pressure;Samples;Min_cycle;Max_cycle;Signal;HPM_P1;HPM_P2
2022/01/07 00:02:00;;;;;;;79.30;38.15;;;;;;;-4.66;100.00;100066.22;4991009;28;20061;-78
2022/01/07 00:04:26;;;;;;;75.93;37.42;;;;;;;-4.66;100.00;100060.28;4991762;28;20508;-78
2022/01/07 00:06:52;;;;;;;69.05;35.45;;;;;;;-4.61;100.00;100063.75;4992003;28;20027;-78
2022/01/07 00:09:19;;;;;;;63.47;33.78;;;;;;;-4.58;100.00;100059.59;4991761;28;20109;-78
2022/01/07 00:11:45;;;;;;;63.13;33.25;;;;;;;-4.63;100.00;100048.50;4991974;28;20030;-78
2022/01/07 00:14:11;;;;;;;65.10;33.15;;;;;;;-4.52;100.00;100049.53;4991591;28;20081;-78
2022/01/07 00:16:38;;;;;;;69.68;34.67;;;;;;;-4.54;100.00;100053.75;4990806;28;20031;-78
2022/01/07 00:19:03;;;;;;;67.40;34.25;;;;;;;-4.58;100.00;100051.13;4992108;28;20490;-78
2022/01/07 00:21:32;;;;;;;64.07;31.80;;;;;;;-4.68;100.00;100034.81;4969679;28;20081;-78
2022/01/07 00:23:57;;;;;;;65.22;30.73;;;;;;;-4.73;100.00;100031.31;4931678;29;20116;-78
2022/01/07 00:26:23;;;;;;;70.50;33.28;;;;;;;-4.73;100.00;100022.84;4931801;29;20032;-78
2022/01/07 00:28:51;;;;;;;55.42;27.52;;;;;;;-4.61;100.00;100048.50;4931780;29;20095;-78
2022/01/07 00:31:16;;;;;;;56.78;30.27;;;;;;;-4.73;100.00;100028.78;4934824;29;20636;-78
2022/01/07 00:33:42;;;;;;;63.35;32.22;;;;;;;-4.62;100.00;100044.25;4934907;29;20043;-78
2022/01/07 00:36:08;;;;;;;58.22;30.15;;;;;;;-4.63;100.00;100048.50;4918988;29;20040;-78
2022/01/07 00:38:34;;;;;;;48.03;27.05;;;;;;;-4.78;100.00;100017.66;4919175;29;20042;-78
2022/01/07 00:40:59;;;;;;;64.90;33.53;;;;;;;-4.74;100.00;100028.75;4935076;29;20047;-78
2022/01/07 00:43:25;;;;;;;50.63;26.92;;;;;;;-4.72;100.00;100038.09;4934572;29;20424;-78
2022/01/07 00:45:50;;;;;;;51.88;25.92;;;;;;;-4.91;100.00;100008.94;4934579;29;20082;-78
2022/01/07 00:48:16;;;;;;;51.47;27.35;;;;;;;-4.72;100.00;100043.19;4934232;28;20048;-78
2022/01/07 00:50:42;;;;;;;52.70;27.70;;;;;;;-4.73;100.00;100048.25;4934699;29;20036;-78
2022/01/07 00:53:07;;;;;;;51.55;27.27;;;;;;;-4.77;100.00;100043.09;4934373;29;20131;-78
2022/01/07 00:55:36;;;;;;;44.10;25.10;;;;;;;-4.75;100.00;100039.75;4934664;29;20044;-78
2022/01/07 00:58:02;;;;;;;48.63;25.35;;;;;;;-4.73;100.00;100050.78;4939326;28;20460;-78
2022/01/07 01:00:28;;;;;;;49.72;26.73;;;;;;;-4.81;100.00;100037.91;4972804;28;20042;-78
2022/01/07 01:02:57;;;;;;;58.13;26.33;;;;;;;-4.85;100.00;100031.06;4972987;28;20039;-78
2022/01/07 01:05:23;;;;;;;51.85;25.85;;;;;;;-4.85;100.00;100031.06;4972750;28;20035;-78
2022/01/07 01:07:50;;;;;;;63.25;27.67;;;;;;;-4.75;100.00;100048.22;4972791;28;20041;-78
2022/01/07 01:10:18;;;;;;;61.53;24.85;;;;;;;-4.96;100.00;100022.38;4972701;28;20105;-79
2022/01/07 01:12:46;;;;;;;54.92;23.70;;;;;;;-4.88;100.00;100031.88;4972978;28;20066;-78
2022/01/07 01:15:16;;;;;;;46.45;22.23;;;;;;;-4.72;100.00;100044.88;4989467;28;20034;-78
2022/01/07 01:17:43;;;;;;;45.65;22.05;;;;;;;-4.77;100.00;100039.69;4975664;28;20047;-78
2022/01/07 01:20:12;;;;;;;45.63;22.63;;;;;;;-4.72;100.00;100044.88;4972405;28;20450;-78
2022/01/07 01:22:39;;;;;;;45.85;23.15;;;;;;;-4.72;100.00;100044.88;4972533;28;20039;-78
2022/01/07 01:25:06;;;;;;;85.85;42.33;;;;;;;-4.84;100.00;100020.94;4970786;28;20101;-78
2022/01/07 01:27:33;;;;;;;154.43;68.20;;;;;;;-4.71;100.00;100047.47;4991711;28;20026;-78
2022/01/07 01:30:00;;;;;;;94.40;39.63;;;;;;;-4.72;100.00;100039.78;4991820;28;20074;-79
2022/01/07 01:32:26;;;;;;;67.03;28.88;;;;;;;-4.66;100.00;100045.03;4991765;28;20125;-78
2022/01/07 01:34:51;;;;;;;38.45;20.33;;;;;;;-4.73;100.00;100038.94;4991824;28;20530;-78
2022/01/07 01:37:16;;;;;;;33.45;19.35;;;;;;;-4.80;100.00;100024.41;4991478;28;20065;-78
2022/01/07 01:39:42;;;;;;;41.38;20.65;;;;;;;-4.74;100.00;100029.59;4992065;28;20046;-78
2022/01/07 01:42:07;;;;;;;35.13;17.90;;;;;;;-4.73;100.00;100033.00;4991736;28;20030;-78
2022/01/07 01:44:34;;;;;;;37.65;19.30;;;;;;;-4.78;100.00;100035.44;4991366;28;20038;-78
2022/01/07 01:46:59;;;;;;;36.10;19.45;;;;;;;-4.87;100.00;100017.47;4991653;28;20026;-78
2022/01/07 01:49:25;;;;;;;47.38;23.98;;;;;;;-4.77;100.00;100045.63;4991414;28;20049;-78
2022/01/07 01:51:51;;;;;;;44.92;23.63;;;;;;;-4.79;100.00;100041.38;4991807;28;20038;-78
2022/01/07 01:54:16;;;;;;;43.40;23.15;;;;;;;-4.77;100.00;100049.88;4991530;28;20034;-78
2022/01/07 01:56:45;;;;;;;46.35;23.45;;;;;;;-4.86;100.00;100035.28;4991438;28;20034;-78
2022/01/07 01:59:10;;;;;;;45.45;22.80;;;;;;;-4.83;100.00;100042.13;5003331;28;20084;-78
2022/01/07 02:01:36;;;;;;;53.25;25.63;;;;;;;-4.83;100.00;100045.53;5013817;28;20157;-78
2022/01/07 02:04:02;;;;;;;46.92;24.50;;;;;;;-4.80;100.00;100054.91;4995823;28;20153;-78
2022/01/07 02:06:29;;;;;;;46.55;25.55;;;;;;;-4.83;100.00;100048.06;5013095;28;20143;-78
2022/01/07 02:08:54;;;;;;;41.38;21.88;;;;;;;-4.83;100.00;100045.53;5010282;28;20034;-78
2022/01/07 02:11:20;;;;;;;53.55;25.08;;;;;;;-4.88;100.00;100043.72;4995340;28;20030;-78
2022/01/07 02:13:48;;;;;;;48.53;24.05;;;;;;;-4.86;100.00;100042.03;5013193;28;20026;-78
2022/01/07 02:16:14;;;;;;;44.58;23.60;;;;;;;-4.86;100.00;100047.97;5013061;28;20113;-78
2022/01/07 02:18:42;;;;;;;48.38;23.35;;;;;;;-4.88;100.00;100039.50;5013242;28;20033;-78
2022/01/07 02:21:08;;;;;;;42.72;21.90;;;;;;;-4.89;100.00;100039.44;5013389;28;20148;-78
2022/01/07 02:23:36;;;;;;;39.50;21.23;;;;;;;-4.80;100.00;100047.28;5012632;28;20034;-78
2022/01/07 02:26:02;;;;;;;46.90;21.83;;;;;;;-4.72;100.00;100043.19;5012973;28;20037;-78
2022/01/07 02:28:29;;;;;;;43.83;22.20;;;;;;;-4.77;100.00;100017.69;4994994;28;20034;-78
2022/01/07 02:30:55;;;;;;;44.78;20.95;;;;;;;-4.59;100.00;100036.72;4995571;28;20030;-78
2022/01/07 02:33:20;;;;;;;39.83;18.10;;;;;;;-4.57;100.00;100043.53;5012502;28;20488;-78
2022/01/07 02:35:46;;;;;;;39.60;20.25;;;;;;;-4.53;100.00;100041.91;5011746;28;20065;-78
2022/01/07 02:38:14;;;;;;;41.95;20.25;;;;;;;-4.47;100.00;100041.16;5012767;28;20069;-78
2022/01/07 02:40:39;;;;;;;41.20;19.48;;;;;;;-4.46;100.00;100040.34;5009573;28;20037;-78
2022/01/07 02:43:05;;;;;;;45.15;20.58;;;;;;;-4.44;100.00;100031.91;4990410;28;20038;-78
2022/01/07 02:45:30;;;;;;;35.33;17.95;;;;;;;-4.41;100.00;100036.22;4990146;28;20030;-78
2022/01/07 02:47:58;;;;;;;37.65;17.45;;;;;;;-4.39;100.00;100032.84;4990389;28;20556;-78
2022/01/07 02:50:27;;;;;;;33.85;17.13;;;;;;;-4.50;100.00;100010.63;4990175;28;20060;-78
2022/01/07 02:52:54;;;;;;;32.30;15.90;;;;;;;-4.46;100.00;100025.94;4989976;28;20104;-78
2022/01/07 02:55:21;;;;;;;32.33;16.13;;;;;;;-4.59;100.00;100013.84;4970517;28;20039;-78
2022/01/07 02:57:47;;;;;;;27.77;15.68;;;;;;;-4.50;100.00;100038.56;4970786;28;20735;-78
2022/01/07 03:00:17;;;;;;;26.65;15.48;;;;;;;-4.58;100.00;100033.34;4954580;28;20046;-78
2022/01/07 03:02:43;;;;;;;29.15;15.25;;;;;;;-4.72;100.00;100010.16;4970865;28;20522;-78
2022/01/07 03:05:08;;;;;;;31.23;15.75;;;;;;;-4.64;100.00;100023.03;4970700;28;20046;-78
2022/01/07 03:07:34;;;;;;;33.28;16.23;;;;;;;-4.89;100.00;99986.09;4970463;28;20039;-78
2022/01/07 03:10:00;;;;;;;32.95;18.58;;;;;;;-4.77;100.00;100004.13;4970663;28;20079;-78
2022/01/07 03:12:27;;;;;;;33.45;16.92;;;;;;;-4.84;100.00;99989.59;4954395;28;20507;-78
2022/01/07 03:14:53;;;;;;;32.50;18.50;;;;;;;-4.85;100.00;99990.41;4938567;29;20138;-77
2022/01/07 03:17:19;;;;;;;35.03;18.15;;;;;;;-4.77;100.00;100007.53;4951061;29;20031;-78
2022/01/07 03:19:44;;;;;;;32.67;17.30;;;;;;;-4.80;100.00;100014.25;4935274;29;20400;-78
2022/01/07 03:22:10;;;;;;;35.13;17.60;;;;;;;-4.83;100.00;100012.50;4970385;28;20030;-78
2022/01/07 03:24:38;;;;;;;34.03;17.52;;;;;;;-4.85;100.00;100010.72;4954899;28;20055;-78
2022/01/07 03:27:04;;;;;;;35.97;17.20;;;;;;;-4.93;100.00;100002.97;4982213;28;20154;-78
2022/01/07 03:29:30;;;;;;;36.03;18.00;;;;;;;-4.90;100.00;100003.00;4989549;28;20445;-78
2022/01/07 03:31:57;;;;;;;32.85;17.38;;;;;;;-4.91;100.00;100005.53;4990101;28;20470;-78
2022/01/07 03:34:22;;;;;;;31.02;16.13;;;;;;;-5.06;100.00;99980.66;4989680;28;20038;-78
2022/01/07 03:36:48;;;;;;;30.45;16.02;;;;;;;-5.13;100.00;99966.97;4989868;28;20034;-77
2022/01/07 03:39:14;;;;;;;32.03;16.08;;;;;;;-5.07;100.00;99984.88;4990252;28;20038;-78
2022/01/07 03:41:39;;;;;;;28.25;14.82;;;;;;;-5.16;100.00;99971.97;4989341;28;20126;-77
2022/01/07 03:44:05;;;;;;;26.98;15.70;;;;;;;-5.02;100.00;100005.28;4989898;28;20034;-77
2022/01/07 03:46:30;;;;;;;32.60;16.13;;;;;;;-5.05;100.00;100006.09;4989314;28;20077;-78
2022/01/07 03:48:56;;;;;;;36.08;16.98;;;;;;;-5.19;100.00;99979.53;4989692;28;20050;-77
2022/01/07 03:51:23;;;;;;;42.97;18.55;;;;;;;-5.09;100.00;100006.00;4989531;28;20096;-78
2022/01/07 03:53:48;;;;;;;45.65;17.52;;;;;;;-5.08;100.00;100006.03;5006535;28;20038;-78
2022/01/07 03:56:18;;;;;;;49.00;18.60;;;;;;;-5.23;100.00;99989.59;5011727;28;20022;-77
2022/01/07 03:58:44;;;;;;;40.42;17.00;;;;;;;-5.16;100.00;100002.44;5011951;28;20060;-77
2022/01/07 04:01:10;;;;;;;35.78;17.02;;;;;;;-5.27;100.00;99986.13;5011719;28;20022;-78
2022/01/07 04:03:35;;;;;;;31.17;15.80;;;;;;;-5.17;100.00;100002.44;4993706;28;20060;-77
2022/01/07 04:06:01;;;;;;;33.50;16.85;;;;;;;-5.23;100.00;99994.66;4998278;28;20034;-77
2022/01/07 04:08:27;;;;;;;37.05;17.75;;;;;;;-5.25;100.00;99991.25;5015178;28;20022;-77
2022/01/07 04:10:53;;;;;;;43.17;18.98;;;;;;;-5.17;100.00;100015.97;5015616;28;20108;-77
2022/01/07 04:13:19;;;;;;;48.75;22.10;;;;;;;-5.37;100.00;99979.97;4997904;28;20018;-77
2022/01/07 04:15:44;;;;;;;40.95;17.77;;;;;;;-5.43;100.00;99974.78;4997772;28;20473;-77
2022/01/07 04:18:10;;;;;;;40.38;18.15;;;;;;;-5.30;100.00;99994.53;5012227;28;20045;-77
2022/01/07 04:20:36;;;;;;;37.13;15.23;;;;;;;-5.24;100.00;100015.81;5014911;28;20034;-77
2022/01/07 04:23:06;;;;;;;33.50;15.80;;;;;;;-5.32;100.00;100001.25;4993143;28;20025;-77
2022/01/07 04:25:32;;;;;;;28.08;14.20;;;;;;;-5.34;100.00;99992.75;5014967;28;20045;-77
2022/01/07 04:28:03;;;;;;;30.50;15.43;;;;;;;-5.38;100.00;99988.44;5015248;28;20030;-77
2022/01/07 04:30:34;;;;;;;26.65;14.32;;;;;;;-5.24;100.00;100011.59;5014713;28;20040;-77
2022/01/07 04:33:01;;;;;;;65.07;33.72;;;;;;;-5.37;100.00;99992.69;5015025;28;20102;-77
2022/01/07 04:35:28;;;;;;;76.57;36.90;;;;;;;-5.35;100.00;99991.03;4997006;28;20386;-78
2022/01/07 04:37:54;;;;;;;77.07;40.33;;;;;;;-5.33;100.00;99998.69;4997470;28;20030;-77
2022/01/07 04:40:22;;;;;;;72.30;32.67;;;;;;;-5.30;100.00;99997.06;5014824;28;20088;-78
2022/01/07 04:42:48;;;;;;;84.55;38.75;;;;;;;-5.28;100.00;99997.97;5014912;28;20050;-78
2022/01/07 04:45:14;;;;;;;91.30;40.97;;;;;;;-5.23;100.00;100000.59;4997237;28;20025;-78
2022/01/07 04:47:40;;;;;;;79.90;36.78;;;;;;;-5.22;100.00;99998.94;5014319;28;20037;-78
2022/01/07 04:50:09;;;;;;;63.53;30.40;;;;;;;-5.39;100.00;99968.94;4972846;28;20078;-78
2022/01/07 04:52:36;;;;;;;52.47;26.20;;;;;;;-5.32;100.00;99975.00;4972725;28;20066;-77
2022/01/07 04:55:02;;;;;;;60.53;28.85;;;;;;;-5.20;100.00;99995.59;4957096;28;20035;-78
2022/01/07 04:57:27;;;;;;;50.45;24.83;;;;;;;-5.25;100.00;99973.47;4972822;28;20070;-78
2022/01/07 04:59:53;;;;;;;50.63;25.02;;;;;;;-5.28;100.00;99961.56;4973181;28;20490;-77
2022/01/07 05:02:20;;;;;;;50.88;27.98;;;;;;;-5.12;100.00;99985.59;4972960;28;20070;-78
2022/01/07 05:04:47;;;;;;;45.05;26.05;;;;;;;-5.20;100.00;99962.59;4972788;28;20071;-78
2022/01/07 05:07:13;;;;;;;43.28;25.25;;;;;;;-5.05;100.00;99985.78;4956666;28;20030;-78
2022/01/07 05:09:39;;;;;;;40.35;22.38;;;;;;;-5.07;100.00;99979.78;4956560;28;20057;-78
2022/01/07 05:12:05;;;;;;;34.33;19.50;;;;;;;-5.08;100.00;99975.53;4956589;28;20486;-78
2022/01/07 05:14:31;;;;;;;39.83;22.60;;;;;;;-5.03;100.00;99971.41;4933869;29;20130;-78
2022/01/07 05:16:57;;;;;;;39.85;18.42;;;;;;;-5.04;100.00;99971.41;4918045;29;20054;-78
2022/01/07 05:19:24;;;;;;;33.38;18.13;;;;;;;-5.06;100.00;99968.81;4934303;29;20388;-77
2022/01/07 05:21:49;;;;;;;27.33;16.00;;;;;;;-5.11;100.00;99947.53;4965191;28;20372;-77
2022/01/07 05:24:16;;;;;;;28.75;15.48;;;;;;;-5.03;100.00;99956.19;4972330;28;20043;-77
2022/01/07 05:26:41;;;;;;;25.70;13.73;;;;;;;-5.10;100.00;99934.03;4972302;28;20151;-78
2022/01/07 05:29:07;;;;;;;35.33;17.83;;;;;;;-4.95;100.00;99955.50;4956321;28;20129;-77
2022/01/07 05:31:33;;;;;;;75.95;33.10;;;;;;;-5.07;100.00;99931.53;4972061;28;20109;-77
2022/01/07 05:33:59;;;;;;;64.75;28.75;;;;;;;-4.93;100.00;99956.38;4956154;28;20029;-77
2022/01/07 05:36:25;;;;;;;86.88;32.65;;;;;;;-5.09;100.00;99925.59;4956069;28;20035;-77
2022/01/07 05:38:51;;;;;;;67.32;27.67;;;;;;;-4.96;100.00;99954.63;4972372;28;20082;-78
2022/01/07 05:41:18;;;;;;;65.95;27.88;;;;;;;-5.12;100.00;99927.19;4972379;28;20035;-77
2022/01/07 05:43:43;;;;;;;57.20;22.42;;;;;;;-4.96;100.00;99948.69;4972213;28;20054;-78
2022/01/07 05:46:15;;;;;;;42.80;20.67;;;;;;;-4.93;100.00;99949.63;4955947;28;20074;-77
2022/01/07 05:48:42;;;;;;;54.83;23.88;;;;;;;-4.92;100.00;99941.16;4971940;28;20030;-77
2022/01/07 05:51:08;;;;;;;63.85;25.85;;;;;;;-4.97;100.00;99919.91;4979139;28;20044;-77
2022/01/07 05:53:35;;;;;;;57.50;25.30;;;;;;;-4.90;100.00;99924.25;4995849;28;20593;-78
2022/01/07 05:56:01;;;;;;;54.60;25.05;;;;;;;-4.85;100.00;99916.72;5013545;28;20109;-78
2022/01/07 05:58:26;;;;;;;145.45;52.83;;;;;;;-4.86;100.00;99900.63;5013193;28;20113;-78
2022/01/07 06:00:52;;;;;;;206.70;62.05;;;;;;;-4.73;100.00;99922.06;5013643;28;20030;-82
2022/01/07 06:03:20;;;;;;;158.60;52.63;;;;;;;-4.79;100.00;99910.09;5015272;28;20357;-82
2022/01/07 06:05:45;;;;;;;124.57;43.38;;;;;;;-4.74;100.00;99912.72;5033209;28;20036;-81
2022/01/07 06:08:11;;;;;;;106.97;43.28;;;;;;;-4.72;100.00;99912.75;5015516;28;20472;-81
2022/01/07 06:10:37;;;;;;;110.90;41.83;;;;;;;-4.73;100.00;99913.56;5015148;28;20067;-81
2022/01/07 06:13:02;;;;;;;166.05;57.13;;;;;;;-4.72;100.00;99908.50;5015288;28;20029;-81
2022/01/07 06:15:27;;;;;;;111.55;43.88;;;;;;;-4.60;100.00;99923.13;5032725;28;20025;-81
2022/01/07 06:17:53;;;;;;;79.22;32.25;;;;;;;-4.66;100.00;99902.72;5015509;28;20025;-81
2022/01/07 06:20:19;;;;;;;58.97;28.00;;;;;;;-4.55;100.00;99924.06;5015402;28;20061;-81
2022/01/07 06:22:45;;;;;;;65.32;27.77;;;;;;;-4.64;100.00;99911.19;5015094;28;20025;-81
2022/01/07 06:25:11;;;;;;;65.47;30.65;;;;;;;-4.48;100.00;99946.25;5014967;28;20041;-81
2022/01/07 06:27:38;;;;;;;50.70;25.05;;;;;;;-4.48;100.00;99938.63;5031715;28;20384;-81
2022/01/07 06:30:05;;;;;;;44.15;22.20;;;;;;;-4.47;100.00;99949.63;5015004;28;20038;-81
2022/01/07 06:32:30;;;;;;;40.45;20.42;;;;;;;-4.45;100.00;99948.84;5033033;28;20022;-81
2022/01/07 06:34:56;;;;;;;31.73;17.15;;;;;;;-4.38;100.00;99955.78;5014984;28;20048;-81
2022/01/07 06:37:25;;;;;;;37.50;20.67;;;;;;;-4.37;100.00;99965.09;5015264;28;20021;-81
2022/01/07 06:39:51;;;;;;;29.23;16.75;;;;;;;-4.41;100.00;99958.25;5025513;28;20037;-81
2022/01/07 06:42:18;;;;;;;33.60;18.38;;;;;;;-4.40;100.00;99964.19;5014754;28;20030;-81
2022/01/07 06:44:44;;;;;;;48.70;23.10;;;;;;;-4.36;100.00;99958.34;5014660;28;20033;-81
2022/01/07 06:47:10;;;;;;;65.75;29.52;;;;;;;-4.39;100.00;99950.63;5014961;28;20083;-78
2022/01/07 06:49:35;;;;;;;69.68;32.08;;;;;;;-4.38;100.00;99949.81;5032217;28;20059;-78
2022/01/07 06:52:02;;;;;;;48.10;26.95;;;;;;;-4.34;100.00;99955.00;5032444;28;20047;-78
2022/01/07 06:54:28;;;;;;;47.35;26.00;;;;;;;-4.35;100.00;99947.31;4981170;28;20642;-77
2022/01/07 06:56:54;;;;;;;59.20;31.33;;;;;;;-4.45;100.00;99937.81;5032235;28;20101;-78
2022/01/07 06:59:19;;;;;;;59.67;32.85;;;;;;;-4.42;100.00;99938.75;4998345;28;20116;-78
2022/01/07 07:01:49;;;;;;;47.45;28.05;;;;;;;-4.42;100.00;99938.75;5032144;28;20056;-78
2022/01/07 07:04:15;;;;;;;48.15;28.55;;;;;;;-4.35;100.00;99938.00;4998572;28;20037;-77
2022/01/07 07:07:05;;;;;;;65.63;33.40;;;;;;;-4.18;100.00;99945.09;4990270;28;20552;-78
2022/01/07 07:09:30;;;;;;;75.38;37.60;;;;;;;-4.16;100.00;99946.84;4970457;28;20045;-78
2022/01/07 07:12:05;;;;;;;63.22;33.08;;;;;;;-4.22;100.00;99921.28;4970756;28;20546;-77
2022/01/07 07:14:33;;;;;;;48.38;28.58;;;;;;;-3.97;100.00;99937.81;4970556;28;20047;-78
2022/01/07 07:17:03;;;;;;;44.15;25.95;;;;;;;-3.96;100.00;99925.94;4954589;28;20097;-78
2022/01/07 07:19:31;;;;;;;93.68;42.65;;;;;;;-3.83;100.00;99938.91;4970486;28;20038;-78
2022/01/07 07:21:59;;;;;;;132.45;61.50;;;;;;;-3.76;100.00;99938.16;4954451;28;20473;-78
2022/01/07 07:24:30;;;;;;;193.15;90.65;;;;;;;-3.79;100.00;99910.13;4954335;28;20042;-78
2022/01/07 07:26:58;;;;;;;224.73;99.22;;;;;;;-3.52;100.00;99924.94;4970537;28;20043;-78
2022/01/07 07:29:24;;;;;;;211.38;94.88;;;;;;;-3.44;100.00;99935.25;4970627;28;20050;-77
2022/01/07 07:31:56;;;;;;;142.75;68.30;;;;;;;-3.40;100.00;99928.50;4970231;28;20042;-78
2022/01/07 07:34:44;;;;;;;112.88;55.03;;;;;;;-3.37;100.00;99925.97;4970526;28;20042;-77
2022/01/07 07:37:15;;;;;;;219.45;90.53;;;;;;;-3.51;100.00;99885.91;4973440;28;20038;-77
2022/01/07 07:39:51;;;;;;;307.75;105.97;;;;;;;-3.32;100.00;99904.84;4965069;28;20850;-78
2022/01/07 07:42:18;;;;;;;251.05;87.10;;;;;;;-3.15;100.00;99905.06;5013987;28;20030;-78
2022/01/07 07:44:45;;;;;;;239.15;97.97;;;;;;;-3.04;100.00;99898.41;5031517;28;20029;-78
2022/01/07 07:47:13;;;;;;;180.48;67.30;;;;;;;-2.69;100.00;99902.22;5031639;28;20429;-78
2022/01/07 07:49:42;;;;;;;;;;;;;;;-2.29;100.00;99909.41;5032046;28;20021;-78
2022/01/07 07:52:20;;;;;;;159.45;64.38;;;;;;;-2.16;100.00;99879.75;5031651;28;19912;-78
2022/01/07 07:54:45;;;;;;;86.72;40.42;;;;;;;-2.02;100.00;99890.09;4989504;28;20092;-78
2022/01/07 07:57:10;;;;;;;278.92;113.60;;;;;;;-2.08;100.00;99877.28;4989846;28;20038;-78
2022/01/07 07:59:36;;;;;;;37.20;21.25;;;;;;;-2.19;100.00;99879.75;4989672;28;20046;-78
2022/01/07 08:02:09;;;;;;;38.47;20.25;;;;;;;-2.37;100.00;99859.16;4989834;28;20026;-78
2022/01/07 08:04:39;;;;;;;32.35;17.48;;;;;;;-2.22;100.00;99897.59;4989557;28;20034;-78
2022/01/07 08:07:16;;;;;;;35.95;20.73;;;;;;;-2.46;100.00;99857.38;4973628;28;20089;-78
2022/01/07 08:09:43;;;;;;;43.58;24.33;;;;;;;-2.23;100.00;99900.09;4989596;28;20449;-78
2022/01/07 08:12:26;;;;;;;61.72;34.05;;;;;;;-2.30;100.00;99899.22;4989776;28;20117;-78
2022/01/07 08:17:36;;;;;;;34.85;20.40;;;;;;;-2.28;100.00;99910.25;4989701;28;20129;-78
2022/01/07 08:20:02;;;;;;;35.45;19.67;;;;;;;-2.33;100.00;99881.31;4989563;28;20482;-78
2022/01/07 08:22:27;;;;;;;31.73;18.27;;;;;;;-2.16;100.00;99891.66;4970708;28;20034;-78
2022/01/07 08:25:02;;;;;;;30.10;20.00;;;;;;;-2.22;100.00;99879.72;4994859;28;20370;-78
2022/01/07 08:27:31;;;;;;;28.92;18.48;;;;;;;-2.06;100.00;99911.34;5029109;28;20363;-78
2022/01/07 08:29:56;;;;;;;35.67;22.88;;;;;;;-2.07;100.00;99907.06;4976163;28;20577;-78
2022/01/07 08:35:06;;;;;;;27.27;17.05;;;;;;;-1.93;100.00;99914.84;5031182;28;20044;-78
2022/01/07 08:37:32;;;;;;;33.85;17.95;;;;;;;-2.04;100.00;99899.44;5031078;28;20025;-78
2022/01/07 08:39:58;;;;;;;24.20;15.60;;;;;;;-1.92;100.00;99922.50;5013356;28;20056;-79
2022/01/07 08:42:25;;;;;;;29.55;15.23;;;;;;;-1.99;100.00;99904.56;5013396;28;20651;-79
2022/01/07 08:44:54;;;;;;;23.25;15.80;;;;;;;-1.89;100.00;99914.03;5030941;28;20424;-79
2022/01/07 08:47:22;;;;;;;25.50;15.43;;;;;;;-1.99;100.00;99902.88;5031001;28;20025;-79
2022/01/07 08:49:49;;;;;;;28.02;16.67;;;;;;;-1.85;100.00;99916.63;5013291;28;20371;-79
2022/01/07 08:52:15;;;;;;;26.05;16.92;;;;;;;-1.79;100.00;99921.75;4995326;28;20041;-79
2022/01/07 08:54:46;;;;;;;26.00;17.85;;;;;;;-1.80;100.00;99914.09;5005597;28;20038;-79
2022/01/07 08:57:21;;;;;;;28.27;19.08;;;;;;;-1.77;100.00;99908.97;4975849;28;20042;-79
2022/01/07 08:59:49;;;;;;;29.77;20.20;;;;;;;-1.65;100.00;99913.34;5027310;28;20043;-79
2022/01/07 09:02:18;;;;;;;28.48;18.63;;;;;;;-1.72;100.00;99896.28;5031501;28;20049;-79
2022/01/07 09:04:45;;;;;;;26.38;15.30;;;;;;;-1.58;100.00;99910.84;5011805;28;20034;-79
2022/01/07 09:07:36;;;;;;;30.35;17.88;;;;;;;-1.57;100.00;99899.75;5007234;28;20087;-79
2022/01/07 09:10:03;;;;;;;24.50;15.07;;;;;;;-1.53;100.00;99909.16;4992380;28;20113;-79
2022/01/07 09:12:29;;;;;;;27.77;17.30;;;;;;;-1.59;100.00;99898.06;4953170;28;20039;-79
2022/01/07 09:14:59;;;;;;;26.05;15.80;;;;;;;-1.45;100.00;99921.97;4953456;29;20039;-79
2022/01/07 09:17:26;;;;;;;31.17;21.02;;;;;;;-1.49;100.00;99899.81;4937870;29;20077;-79
2022/01/07 09:19:55;;;;;;;37.42;23.40;;;;;;;-1.45;100.00;99903.25;4953442;29;20039;-79
2022/01/07 09:22:21;;;;;;;26.92;15.30;;;;;;;-1.59;100.00;99878.47;4953495;29;20440;-79
2022/01/07 09:24:47;;;;;;;31.08;18.52;;;;;;;-1.49;100.00;99896.41;4914557;29;20091;-79
2022/01/07 09:27:14;;;;;;;30.55;18.73;;;;;;;-1.49;100.00;99892.16;4915194;29;20369;-79
2022/01/07 09:29:56;;;;;;;31.58;17.13;;;;;;;-1.57;100.00;99868.25;4914900;29;20040;-80
2022/01/07 09:32:22;;;;;;;26.40;17.60;;;;;;;-1.41;100.00;99887.94;4915608;29;20055;-79
2022/01/07 09:34:48;;;;;;;30.52;18.10;;;;;;;-1.40;100.00;99884.53;4916902;29;20179;-79
2022/01/07 09:37:14;;;;;;;29.05;17.88;;;;;;;-1.37;100.00;99882.00;4934454;29;20051;-79
2022/01/07 09:39:41;;;;;;;33.92;20.33;;;;;;;-1.31;100.00;99873.50;4933708;29;20083;-79
2022/01/07 09:42:10;;;;;;;33.33;19.83;;;;;;;-1.22;100.00;99872.69;4934116;29;20050;-79
2022/01/07 09:44:39;;;;;;;28.45;17.70;;;;;;;-1.20;100.00;99866.75;4932949;29;20043;-79
2022/01/07 09:47:06;;;;;;;26.83;14.65;;;;;;;-1.16;100.00;99865.06;4902641;29;20138;-79
2022/01/07 09:49:34;;;;;;;26.13;14.40;;;;;;;-1.13;100.00;99865.09;4898982;29;20099;-79
2022/01/07 09:52:01;;;;;;;39.10;20.92;;;;;;;-1.03;100.00;99866.81;4914668;29;20048;-79
2022/01/07 09:54:28;;;;;;;28.27;15.73;;;;;;;-1.15;100.00;99848.88;4883708;29;20098;-79
2022/01/07 09:56:54;;;;;;;35.47;17.90;;;;;;;-1.15;100.00;99844.63;4935082;29;20046;-79
2022/01/07 09:59:20;;;;;;;45.53;22.40;;;;;;;-1.12;100.00;99838.69;4952783;29;20070;-79
2022/01/07 10:02:11;;;;;;;39.08;21.08;;;;;;;-0.99;100.00;99855.75;4935687;29;20086;-79
2022/01/07 10:04:42;;;;;;;32.42;17.63;;;;;;;-1.02;100.00;99848.94;4861006;29;20068;-79
2022/01/07 10:07:24;;;;;;;39.72;21.02;;;;;;;-0.96;100.00;99857.50;4877147;29;20194;-79
2022/01/07 10:10:05;;;;;;;29.33;16.63;;;;;;;-0.96;100.00;99837.88;4876566;29;20105;-79
2022/01/07 10:13:00;;;;;;;31.70;16.55;;;;;;;-0.86;100.00;99837.03;4876964;29;20085;-79
2022/01/07 10:15:40;;;;;;;22.60;13.18;;;;;;;-1.02;100.00;99796.94;4877007;29;20485;-79
2022/01/07 10:18:10;;;;;;;44.40;21.45;;;;;;;-0.73;100.00;99826.84;4874479;29;20048;-79
2022/01/07 10:20:39;;;;;;;33.42;17.02;;;;;;;-0.78;100.00;99821.72;4876862;29;20041;-79
2022/01/07 10:23:06;;;;;;;47.63;21.58;;;;;;;-0.71;100.00;99820.91;4876688;29;20162;-79
2022/01/07 10:25:37;;;;;;;26.80;13.50;;;;;;;-0.69;100.00;99816.63;4876349;29;20442;-79
2022/01/07 10:28:12;;;;;;;38.33;22.38;;;;;;;-0.78;100.00;99811.50;4882425;29;20043;-79
2022/01/07 10:30:41;;;;;;;30.30;15.88;;;;;;;-0.67;100.00;99827.72;4915139;29;20073;-79
2022/01/07 10:33:25;;;;;;;39.40;17.65;;;;;;;-0.70;100.00;99826.88;4936217;29;20221;-79
2022/01/07 10:35:55;;;;;;;40.13;16.20;;;;;;;-0.79;100.00;99814.91;4952227;29;20034;-79
2022/01/07 10:38:24;;;;;;;33.60;15.40;;;;;;;-0.66;100.00;99819.19;4952287;29;20036;-78
2022/01/07 10:40:53;;;;;;;42.72;15.75;;;;;;;-0.60;100.00;99826.00;4894862;29;20057;-78
2022/01/07 10:43:32;;;;;;;60.03;29.58;;;;;;;-0.66;100.00;99811.53;4895066;29;20128;-79
2022/01/07 10:46:27;;;;;;;43.78;20.30;;;;;;;-0.46;100.00;99828.56;4895123;29;20552;-79
2022/01/07 10:48:58;;;;;;;35.92;16.25;;;;;;;-0.51;100.00;99811.56;4919171;29;20046;-79
2022/01/07 10:51:26;;;;;;;35.50;16.35;;;;;;;-0.42;100.00;99813.25;4933275;29;20052;-78
2022/01/07 10:53:57;;;;;;;34.70;15.00;;;;;;;-0.35;100.00;99803.84;4932821;29;20420;-78
2022/01/07 10:56:33;;;;;;;48.80;20.50;;;;;;;-0.17;100.00;99818.34;4916776;29;20564;-79
2022/01/07 10:59:05;;;;;;;29.95;14.88;;;;;;;-0.14;100.00;99808.97;4931879;29;20050;-79
2022/01/07 11:01:32;;;;;;;27.40;14.38;;;;;;;0.01;100.00;99809.81;4913819;29;20044;-79
2022/01/07 11:04:01;;;;;;;36.30;19.80;;;;;;;-0.02;100.00;99791.03;4875745;29;20041;-79
2022/01/07 11:06:28;;;;;;;35.88;18.08;;;;;;;0.04;100.00;99790.16;4876077;29;20426;-78
2022/01/07 11:08:56;;;;;;;34.08;16.55;;;;;;;0.17;100.00;99803.78;4860393;29;20045;-79
2022/01/07 11:11:24;;;;;;;30.33;14.90;;;;;;;0.09;100.00;99779.94;4893037;29;20055;-79
2022/01/07 11:13:49;;;;;;;30.90;14.45;;;;;;;0.22;100.00;99795.25;4931700;29;20047;-79
2022/01/07 11:16:15;;;;;;;26.55;14.27;;;;;;;0.22;100.00;99791.84;4932281;29;20036;-78